sensor_id;sensor_type;location;lat;lon;timestamp;temperature;humidity
39849;DHT22;25518;47.878;15.914;2023-04-16T00:00:53;4.20;99.90
39849;DHT22;25518;47.878;15.914;2023-04-16T00:03:43;4.30;99.90
39849;DHT22;25518;47.878;15.914;2023-04-16T00:06:33;4.20;99.90
39849;DHT22;25518;47.878;15.914;2023-04-16T00:09:23;4.10;99.90
39849;DHT22;25518;47.878;15.914;2023-04-16T00:12:12;4.00;99.90
39849;DHT22;25518;47.878;15.914;2023-04-16T00:15:02;4.10;99.90
39849;DHT22;25518;47.878;15.914;2023-04-16T00:17:52;4.10;99.90
39849;DHT22;25518;47.878;15.914;2023-04-16T00:20:41;4.10;99.90
39849;DHT22;25518;47.878;15.914;2023-04-16T00:23:31;4.10;99.90
39849;DHT22;25518;47.878;15.914;2023-04-16T00:26:21;3.90;99.90
39849;DHT22;25518;47.878;15.914;2023-04-16T00:29:11;3.90;99.90
39849;DHT22;25518;47.878;15.914;2023-04-16T00:32:01;4.00;99.90
39849;DHT22;25518;47.878;15.914;2023-04-16T00:34:51;3.80;99.90
39849;DHT22;25518;47.878;15.914;2023-04-16T00:37:40;3.90;99.90
39849;DHT22;25518;47.878;15.914;2023-04-16T00:40:30;3.90;99.90
39849;DHT22;25518;47.878;15.914;2023-04-16T00:43:21;3.70;99.90
39849;DHT22;25518;47.878;15.914;2023-04-16T00:46:12;3.70;99.90
39849;DHT22;25518;47.878;15.914;2023-04-16T00:49:03;3.50;99.90
39849;DHT22;25518;47.878;15.914;2023-04-16T00:51:53;3.60;99.90
39849;DHT22;25518;47.878;15.914;2023-04-16T00:54:42;3.40;99.90
39849;DHT22;25518;47.878;15.914;2023-04-16T00:57:32;3.40;99.90
39849;DHT22;25518;47.878;15.914;2023-04-16T01:00:21;3.50;99.90
39849;DHT22;25518;47.878;15.914;2023-04-16T01:03:11;3.50;99.90
39849;DHT22;25518;47.878;15.914;2023-04-16T01:06:01;3.50;99.90
39849;DHT22;25518;47.878;15.914;2023-04-16T01:08:50;3.40;99.90
39849;DHT22;25518;47.878;15.914;2023-04-16T01:11:40;3.40;99.90
39849;DHT22;25518;47.878;15.914;2023-04-16T01:14:30;3.50;99.90
39849;DHT22;25518;47.878;15.914;2023-04-16T01:17:24;3.60;99.90
39849;DHT22;25518;47.878;15.914;2023-04-16T01:20:14;3.50;99.90
39849;DHT22;25518;47.878;15.914;2023-04-16T01:23:04;3.60;99.90
39849;DHT22;25518;47.878;15.914;2023-04-16T01:25:53;3.70;99.90
39849;DHT22;25518;47.878;15.914;2023-04-16T01:28:43;3.70;99.90
39849;DHT22;25518;47.878;15.914;2023-04-16T01:31:32;3.60;99.90
39849;DHT22;25518;47.878;15.914;2023-04-16T01:34:22;3.60;99.90
39849;DHT22;25518;47.878;15.914;2023-04-16T01:37:12;3.60;99.90
39849;DHT22;25518;47.878;15.914;2023-04-16T01:40:02;3.60;99.90
39849;DHT22;25518;47.878;15.914;2023-04-16T01:42:51;3.70;99.90
39849;DHT22;25518;47.878;15.914;2023-04-16T01:45:41;3.40;99.90
39849;DHT22;25518;47.878;15.914;2023-04-16T01:48:31;3.70;99.90
39849;DHT22;25518;47.878;15.914;2023-04-16T01:51:21;3.60;99.90
39849;DHT22;25518;47.878;15.914;2023-04-16T01:54:10;3.70;99.90
39849;DHT22;25518;47.878;15.914;2023-04-16T01:57:00;3.60;99.90
39849;DHT22;25518;47.878;15.914;2023-04-16T01:59:50;3.60;99.90
39849;DHT22;25518;47.878;15.914;2023-04-16T02:02:40;3.70;99.90
39849;DHT22;25518;47.878;15.914;2023-04-16T02:05:29;3.60;99.90
39849;DHT22;25518;47.878;15.914;2023-04-16T02:08:19;3.50;99.90
39849;DHT22;25518;47.878;15.914;2023-04-16T02:11:08;3.40;99.90
39849;DHT22;25518;47.878;15.914;2023-04-16T02:13:58;3.30;99.90
39849;DHT22;25518;47.878;15.914;2023-04-16T02:16:48;3.30;99.90
39849;DHT22;25518;47.878;15.914;2023-04-16T02:19:37;3.40;99.90
39849;DHT22;25518;47.878;15.914;2023-04-16T02:22:27;3.20;99.90
39849;DHT22;25518;47.878;15.914;2023-04-16T02:25:17;3.00;99.90
39849;DHT22;25518;47.878;15.914;2023-04-16T02:28:08;3.00;99.90
39849;DHT22;25518;47.878;15.914;2023-04-16T02:30:58;3.00;99.90
39849;DHT22;25518;47.878;15.914;2023-04-16T02:33:48;3.00;99.90
39849;DHT22;25518;47.878;15.914;2023-04-16T02:36:38;3.10;99.90
39849;DHT22;25518;47.878;15.914;2023-04-16T02:39:27;3.20;99.90
39849;DHT22;25518;47.878;15.914;2023-04-16T02:42:17;3.30;99.90
39849;DHT22;25518;47.878;15.914;2023-04-16T02:45:08;3.40;99.90
39849;DHT22;25518;47.878;15.914;2023-04-16T02:47:58;3.30;99.90
39849;DHT22;25518;47.878;15.914;2023-04-16T02:50:48;3.20;99.90
39849;DHT22;25518;47.878;15.914;2023-04-16T02:53:38;3.30;99.90
39849;DHT22;25518;47.878;15.914;2023-04-16T02:56:27;3.40;99.90
39849;DHT22;25518;47.878;15.914;2023-04-16T02:59:18;3.50;99.90
39849;DHT22;25518;47.878;15.914;2023-04-16T03:19:03;3.50;99.90
39849;DHT22;25518;47.878;15.914;2023-04-16T03:21:53;3.40;99.90
39849;DHT22;25518;47.878;15.914;2023-04-16T03:24:42;3.30;99.90
39849;DHT22;25518;47.878;15.914;2023-04-16T03:27:32;3.40;99.90
39849;DHT22;25518;47.878;15.914;2023-04-16T03:30:22;3.40;99.90
39849;DHT22;25518;47.878;15.914;2023-04-16T03:33:12;3.30;99.90
39849;DHT22;25518;47.878;15.914;2023-04-16T03:36:01;3.30;99.90
39849;DHT22;25518;47.878;15.914;2023-04-16T03:38:51;3.30;99.90
39849;DHT22;25518;47.878;15.914;2023-04-16T03:41:41;3.30;99.90
39849;DHT22;25518;47.878;15.914;2023-04-16T03:44:31;3.20;99.90
39849;DHT22;25518;47.878;15.914;2023-04-16T03:47:20;3.20;99.90
39849;DHT22;25518;47.878;15.914;2023-04-16T03:50:10;3.20;99.90
39849;DHT22;25518;47.878;15.914;2023-04-16T03:53:00;3.10;99.90
39849;DHT22;25518;47.878;15.914;2023-04-16T03:55:50;3.30;99.90
39849;DHT22;25518;47.878;15.914;2023-04-16T03:58:40;3.40;99.90
39849;DHT22;25518;47.878;15.914;2023-04-16T04:01:29;3.40;99.90
39849;DHT22;25518;47.878;15.914;2023-04-16T04:04:19;3.30;99.90
39849;DHT22;25518;47.878;15.914;2023-04-16T04:07:09;3.40;99.90
39849;DHT22;25518;47.878;15.914;2023-04-16T04:09:59;3.50;99.90
39849;DHT22;25518;47.878;15.914;2023-04-16T04:12:48;1.90;99.90
39849;DHT22;25518;47.878;15.914;2023-04-16T04:15:38;3.40;99.90
39849;DHT22;25518;47.878;15.914;2023-04-16T04:18:28;3.30;99.90
39849;DHT22;25518;47.878;15.914;2023-04-16T04:21:17;3.30;99.90
39849;DHT22;25518;47.878;15.914;2023-04-16T04:24:07;3.30;99.90
39849;DHT22;25518;47.878;15.914;2023-04-16T04:26:57;3.30;99.90
39849;DHT22;25518;47.878;15.914;2023-04-16T04:29:46;3.20;99.90
39849;DHT22;25518;47.878;15.914;2023-04-16T04:32:36;3.20;99.90
39849;DHT22;25518;47.878;15.914;2023-04-16T04:35:25;3.30;99.90
39849;DHT22;25518;47.878;15.914;2023-04-16T04:38:15;3.40;99.90
39849;DHT22;25518;47.878;15.914;2023-04-16T04:41:07;3.40;99.90
39849;DHT22;25518;47.878;15.914;2023-04-16T04:43:57;3.30;99.90
39849;DHT22;25518;47.878;15.914;2023-04-16T04:46:46;3.20;99.90
39849;DHT22;25518;47.878;15.914;2023-04-16T04:49:36;3.10;99.90
39849;DHT22;25518;47.878;15.914;2023-04-16T04:52:26;1.10;99.90
39849;DHT22;25518;47.878;15.914;2023-04-16T04:55:15;3.30;99.90
39849;DHT22;25518;47.878;15.914;2023-04-16T04:58:06;3.40;99.90
39849;DHT22;25518;47.878;15.914;2023-04-16T05:00:56;3.40;99.90
39849;DHT22;25518;47.878;15.914;2023-04-16T05:03:46;3.40;99.90
39849;DHT22;25518;47.878;15.914;2023-04-16T05:06:35;3.50;99.90
39849;DHT22;25518;47.878;15.914;2023-04-16T05:09:25;3.50;99.90
39849;DHT22;25518;47.878;15.914;2023-04-16T05:12:14;3.60;99.90
39849;DHT22;25518;47.878;15.914;2023-04-16T05:15:05;3.70;99.90
39849;DHT22;25518;47.878;15.914;2023-04-16T05:17:56;3.90;99.90
39849;DHT22;25518;47.878;15.914;2023-04-16T05:20:45;3.90;99.90
39849;DHT22;25518;47.878;15.914;2023-04-16T05:23:35;4.20;99.90
39849;DHT22;25518;47.878;15.914;2023-04-16T05:26:25;4.20;99.90
39849;DHT22;25518;47.878;15.914;2023-04-16T05:29:14;4.20;99.90
39849;DHT22;25518;47.878;15.914;2023-04-16T05:32:04;4.30;99.90
39849;DHT22;25518;47.878;15.914;2023-04-16T05:34:54;4.40;99.90
39849;DHT22;25518;47.878;15.914;2023-04-16T05:37:44;4.40;99.90
39849;DHT22;25518;47.878;15.914;2023-04-16T05:40:33;4.50;99.90
39849;DHT22;25518;47.878;15.914;2023-04-16T05:43:23;4.60;99.90
39849;DHT22;25518;47.878;15.914;2023-04-16T05:46:12;4.60;99.90
39849;DHT22;25518;47.878;15.914;2023-04-16T05:49:02;4.80;99.90
39849;DHT22;25518;47.878;15.914;2023-04-16T05:51:51;4.70;99.90
39849;DHT22;25518;47.878;15.914;2023-04-16T05:54:41;4.60;99.90
39849;DHT22;25518;47.878;15.914;2023-04-16T05:57:32;4.60;99.90
39849;DHT22;25518;47.878;15.914;2023-04-16T06:00:22;4.70;99.90
39849;DHT22;25518;47.878;15.914;2023-04-16T06:03:11;4.90;99.90
39849;DHT22;25518;47.878;15.914;2023-04-16T06:06:01;4.90;99.90
39849;DHT22;25518;47.878;15.914;2023-04-16T06:08:50;4.90;99.90
39849;DHT22;25518;47.878;15.914;2023-04-16T06:11:40;4.90;99.90
39849;DHT22;25518;47.878;15.914;2023-04-16T06:14:30;5.00;99.90
39849;DHT22;25518;47.878;15.914;2023-04-16T06:17:20;5.10;99.90
39849;DHT22;25518;47.878;15.914;2023-04-16T06:20:10;5.10;99.90
39849;DHT22;25518;47.878;15.914;2023-04-16T06:23:00;5.10;99.90
39849;DHT22;25518;47.878;15.914;2023-04-16T06:25:49;5.10;99.90
39849;DHT22;25518;47.878;15.914;2023-04-16T06:28:40;5.00;99.90
39849;DHT22;25518;47.878;15.914;2023-04-16T06:31:29;4.90;99.90
39849;DHT22;25518;47.878;15.914;2023-04-16T06:34:19;4.80;99.90
39849;DHT22;25518;47.878;15.914;2023-04-16T06:37:09;4.80;99.90
39849;DHT22;25518;47.878;15.914;2023-04-16T06:39:58;4.90;99.90
39849;DHT22;25518;47.878;15.914;2023-04-16T06:42:48;4.80;99.90
39849;DHT22;25518;47.878;15.914;2023-04-16T06:45:37;4.80;99.90
39849;DHT22;25518;47.878;15.914;2023-04-16T06:48:27;4.90;99.90
39849;DHT22;25518;47.878;15.914;2023-04-16T06:51:18;4.90;99.90
39849;DHT22;25518;47.878;15.914;2023-04-16T06:54:07;5.00;99.90
39849;DHT22;25518;47.878;15.914;2023-04-16T06:56:57;5.20;99.90
39849;DHT22;25518;47.878;15.914;2023-04-16T06:59:47;5.30;99.90
39849;DHT22;25518;47.878;15.914;2023-04-16T07:02:36;5.40;99.90
39849;DHT22;25518;47.878;15.914;2023-04-16T07:05:26;5.60;99.90
39849;DHT22;25518;47.878;15.914;2023-04-16T07:08:16;5.50;99.90
39849;DHT22;25518;47.878;15.914;2023-04-16T07:11:05;5.60;99.90
39849;DHT22;25518;47.878;15.914;2023-04-16T07:13:55;5.60;99.90
39849;DHT22;25518;47.878;15.914;2023-04-16T07:16:46;5.80;99.90
39849;DHT22;25518;47.878;15.914;2023-04-16T07:19:35;5.90;99.90
39849;DHT22;25518;47.878;15.914;2023-04-16T07:22:25;5.90;99.90
39849;DHT22;25518;47.878;15.914;2023-04-16T07:25:15;6.00;99.90
39849;DHT22;25518;47.878;15.914;2023-04-16T07:28:04;6.10;99.90
39849;DHT22;25518;47.878;15.914;2023-04-16T07:30:54;5.90;99.90
39849;DHT22;25518;47.878;15.914;2023-04-16T07:33:44;5.90;99.90
39849;DHT22;25518;47.878;15.914;2023-04-16T07:36:35;5.90;99.90
39849;DHT22;25518;47.878;15.914;2023-04-16T07:39:25;5.90;99.90
39849;DHT22;25518;47.878;15.914;2023-04-16T07:42:15;6.10;99.90
39849;DHT22;25518;47.878;15.914;2023-04-16T07:45:05;6.30;99.90
39849;DHT22;25518;47.878;15.914;2023-04-16T07:47:56;6.30;99.90
39849;DHT22;25518;47.878;15.914;2023-04-16T07:50:45;6.50;99.90
39849;DHT22;25518;47.878;15.914;2023-04-16T07:53:35;6.40;99.90
39849;DHT22;25518;47.878;15.914;2023-04-16T07:56:24;6.40;99.90
39849;DHT22;25518;47.878;15.914;2023-04-16T07:59:14;6.50;99.90
39849;DHT22;25518;47.878;15.914;2023-04-16T08:02:04;6.60;99.90
39849;DHT22;25518;47.878;15.914;2023-04-16T08:04:55;6.50;99.90
39849;DHT22;25518;47.878;15.914;2023-04-16T08:07:46;6.50;99.90
39849;DHT22;25518;47.878;15.914;2023-04-16T08:10:37;6.40;99.90
39849;DHT22;25518;47.878;15.914;2023-04-16T08:13:27;6.40;99.90
39849;DHT22;25518;47.878;15.914;2023-04-16T08:16:16;6.40;99.90
39849;DHT22;25518;47.878;15.914;2023-04-16T08:19:06;6.50;99.90
39849;DHT22;25518;47.878;15.914;2023-04-16T08:21:55;6.70;99.90
39849;DHT22;25518;47.878;15.914;2023-04-16T08:24:45;6.70;99.90
39849;DHT22;25518;47.878;15.914;2023-04-16T08:27:35;6.70;99.90
39849;DHT22;25518;47.878;15.914;2023-04-16T08:30:25;6.70;99.90
39849;DHT22;25518;47.878;15.914;2023-04-16T08:33:15;6.70;99.90
39849;DHT22;25518;47.878;15.914;2023-04-16T08:36:04;6.60;99.90
39849;DHT22;25518;47.878;15.914;2023-04-16T08:38:54;6.60;99.90
39849;DHT22;25518;47.878;15.914;2023-04-16T08:41:45;6.50;99.90
39849;DHT22;25518;47.878;15.914;2023-04-16T08:44:37;6.80;99.90
39849;DHT22;25518;47.878;15.914;2023-04-16T08:47:28;6.90;99.90
39849;DHT22;25518;47.878;15.914;2023-04-16T08:50:23;7.00;99.90
39849;DHT22;25518;47.878;15.914;2023-04-16T08:53:17;6.90;99.90
39849;DHT22;25518;47.878;15.914;2023-04-16T08:56:10;6.90;99.90
39849;DHT22;25518;47.878;15.914;2023-04-16T08:59:00;7.10;99.90
39849;DHT22;25518;47.878;15.914;2023-04-16T09:01:57;7.10;99.90
39849;DHT22;25518;47.878;15.914;2023-04-16T09:04:49;7.20;99.90
39849;DHT22;25518;47.878;15.914;2023-04-16T09:07:40;7.30;99.90
39849;DHT22;25518;47.878;15.914;2023-04-16T09:10:30;7.20;99.90
39849;DHT22;25518;47.878;15.914;2023-04-16T09:13:21;7.10;99.90
39849;DHT22;25518;47.878;15.914;2023-04-16T09:16:12;7.10;99.90
39849;DHT22;25518;47.878;15.914;2023-04-16T09:19:02;6.90;99.90
39849;DHT22;25518;47.878;15.914;2023-04-16T09:21:52;6.90;99.90
39849;DHT22;25518;47.878;15.914;2023-04-16T09:24:41;7.10;99.90
39849;DHT22;25518;47.878;15.914;2023-04-16T09:27:31;7.20;99.90
39849;DHT22;25518;47.878;15.914;2023-04-16T09:30:23;7.10;99.90
39849;DHT22;25518;47.878;15.914;2023-04-16T09:33:18;7.40;99.90
39849;DHT22;25518;47.878;15.914;2023-04-16T09:36:10;7.20;99.90
39849;DHT22;25518;47.878;15.914;2023-04-16T09:39:00;7.20;99.90
39849;DHT22;25518;47.878;15.914;2023-04-16T09:41:52;7.10;99.90
39849;DHT22;25518;47.878;15.914;2023-04-16T09:44:43;7.10;99.90
39849;DHT22;25518;47.878;15.914;2023-04-16T09:47:42;7.20;99.90
39849;DHT22;25518;47.878;15.914;2023-04-16T09:50:32;7.40;99.90
39849;DHT22;25518;47.878;15.914;2023-04-16T09:53:27;7.70;99.90
39849;DHT22;25518;47.878;15.914;2023-04-16T09:56:17;7.70;99.90
39849;DHT22;25518;47.878;15.914;2023-04-16T09:59:08;7.80;99.90
39849;DHT22;25518;47.878;15.914;2023-04-16T10:01:59;7.80;99.90
39849;DHT22;25518;47.878;15.914;2023-04-16T10:04:51;8.00;99.90
39849;DHT22;25518;47.878;15.914;2023-04-16T10:07:41;8.00;99.90
39849;DHT22;25518;47.878;15.914;2023-04-16T10:10:31;7.90;99.90
39849;DHT22;25518;47.878;15.914;2023-04-16T10:13:21;7.70;99.90
39849;DHT22;25518;47.878;15.914;2023-04-16T10:16:11;7.60;99.90
39849;DHT22;25518;47.878;15.914;2023-04-16T10:19:01;7.70;99.90
39849;DHT22;25518;47.878;15.914;2023-04-16T10:21:52;7.70;99.90
39849;DHT22;25518;47.878;15.914;2023-04-16T10:24:42;7.80;99.90
39849;DHT22;25518;47.878;15.914;2023-04-16T10:27:34;8.00;99.90
39849;DHT22;25518;47.878;15.914;2023-04-16T10:30:25;8.20;99.90
39849;DHT22;25518;47.878;15.914;2023-04-16T10:33:15;8.30;99.90
39849;DHT22;25518;47.878;15.914;2023-04-16T10:36:25;8.20;99.90
39849;DHT22;25518;47.878;15.914;2023-04-16T10:39:18;8.60;99.90
39849;DHT22;25518;47.878;15.914;2023-04-16T10:42:11;8.50;99.90
39849;DHT22;25518;47.878;15.914;2023-04-16T10:45:02;8.40;99.90
39849;DHT22;25518;47.878;15.914;2023-04-16T10:47:55;8.40;99.90
39849;DHT22;25518;47.878;15.914;2023-04-16T10:51:04;8.50;99.90
39849;DHT22;25518;47.878;15.914;2023-04-16T10:53:55;8.40;99.90
39849;DHT22;25518;47.878;15.914;2023-04-16T10:56:46;8.30;99.90
39849;DHT22;25518;47.878;15.914;2023-04-16T10:59:37;8.60;99.90
39849;DHT22;25518;47.878;15.914;2023-04-16T11:02:28;8.60;99.90
39849;DHT22;25518;47.878;15.914;2023-04-16T11:05:22;8.70;99.90
39849;DHT22;25518;47.878;15.914;2023-04-16T11:08:15;8.40;99.90
39849;DHT22;25518;47.878;15.914;2023-04-16T11:11:05;8.60;99.90
39849;DHT22;25518;47.878;15.914;2023-04-16T11:13:55;8.60;99.90
39849;DHT22;25518;47.878;15.914;2023-04-16T11:16:45;8.70;99.90
39849;DHT22;25518;47.878;15.914;2023-04-16T11:19:35;8.70;99.90
39849;DHT22;25518;47.878;15.914;2023-04-16T11:22:26;8.70;99.90
39849;DHT22;25518;47.878;15.914;2023-04-16T11:25:31;8.50;99.90
39849;DHT22;25518;47.878;15.914;2023-04-16T11:28:37;9.00;99.90
39849;DHT22;25518;47.878;15.914;2023-04-16T11:31:27;9.10;99.90
39849;DHT22;25518;47.878;15.914;2023-04-16T11:34:18;9.30;99.90
39849;DHT22;25518;47.878;15.914;2023-04-16T11:37:08;9.40;99.90
39849;DHT22;25518;47.878;15.914;2023-04-16T11:39:57;9.20;99.90
39849;DHT22;25518;47.878;15.914;2023-04-16T11:42:47;8.40;99.90
39849;DHT22;25518;47.878;15.914;2023-04-16T11:45:36;8.40;99.90
39849;DHT22;25518;47.878;15.914;2023-04-16T11:48:49;8.50;99.90
39849;DHT22;25518;47.878;15.914;2023-04-16T11:51:40;8.50;99.90
39849;DHT22;25518;47.878;15.914;2023-04-16T11:54:30;8.50;99.90
39849;DHT22;25518;47.878;15.914;2023-04-16T12:00:15;8.30;99.90
39849;DHT22;25518;47.878;15.914;2023-04-16T12:03:04;8.60;99.90
39849;DHT22;25518;47.878;15.914;2023-04-16T12:05:54;8.70;99.90
39849;DHT22;25518;47.878;15.914;2023-04-16T12:08:55;8.80;99.90
39849;DHT22;25518;47.878;15.914;2023-04-16T12:11:45;8.80;99.90
39849;DHT22;25518;47.878;15.914;2023-04-16T12:14:35;8.90;99.90
39849;DHT22;25518;47.878;15.914;2023-04-16T12:17:25;9.10;99.90
39849;DHT22;25518;47.878;15.914;2023-04-16T12:20:14;9.10;99.90
39849;DHT22;25518;47.878;15.914;2023-04-16T12:23:04;9.30;99.90
39849;DHT22;25518;47.878;15.914;2023-04-16T12:25:54;9.60;99.90
39849;DHT22;25518;47.878;15.914;2023-04-16T12:28:44;9.70;99.90
39849;DHT22;25518;47.878;15.914;2023-04-16T12:31:37;9.60;99.90
39849;DHT22;25518;47.878;15.914;2023-04-16T12:34:26;9.90;99.90
39849;DHT22;25518;47.878;15.914;2023-04-16T12:37:16;9.80;99.90
39849;DHT22;25518;47.878;15.914;2023-04-16T12:40:06;9.50;99.90
39849;DHT22;25518;47.878;15.914;2023-04-16T12:42:57;9.40;99.90
39849;DHT22;25518;47.878;15.914;2023-04-16T12:45:46;9.60;99.90
39849;DHT22;25518;47.878;15.914;2023-04-16T12:48:36;9.80;99.90
39849;DHT22;25518;47.878;15.914;2023-04-16T12:51:26;9.50;99.90
39849;DHT22;25518;47.878;15.914;2023-04-16T12:54:16;9.30;99.90
39849;DHT22;25518;47.878;15.914;2023-04-16T12:57:06;9.30;99.90
39849;DHT22;25518;47.878;15.914;2023-04-16T12:59:56;9.30;99.90
39849;DHT22;25518;47.878;15.914;2023-04-16T13:02:47;9.40;99.90
39849;DHT22;25518;47.878;15.914;2023-04-16T13:05:36;9.20;99.90
39849;DHT22;25518;47.878;15.914;2023-04-16T13:08:26;9.20;99.90
39849;DHT22;25518;47.878;15.914;2023-04-16T13:11:15;9.20;99.90
39849;DHT22;25518;47.878;15.914;2023-04-16T13:14:05;9.20;99.90
39849;DHT22;25518;47.878;15.914;2023-04-16T13:16:54;9.00;99.90
39849;DHT22;25518;47.878;15.914;2023-04-16T13:19:44;9.00;99.90
39849;DHT22;25518;47.878;15.914;2023-04-16T13:22:34;8.80;99.90
39849;DHT22;25518;47.878;15.914;2023-04-16T13:25:24;8.80;99.90
39849;DHT22;25518;47.878;15.914;2023-04-16T13:28:13;8.80;99.90
39849;DHT22;25518;47.878;15.914;2023-04-16T13:31:03;8.60;99.90
39849;DHT22;25518;47.878;15.914;2023-04-16T13:33:52;8.70;99.90
39849;DHT22;25518;47.878;15.914;2023-04-16T13:36:42;8.80;99.90
39849;DHT22;25518;47.878;15.914;2023-04-16T13:39:32;8.90;99.90
39849;DHT22;25518;47.878;15.914;2023-04-16T13:42:21;9.00;99.90
39849;DHT22;25518;47.878;15.914;2023-04-16T13:45:11;9.10;99.90
39849;DHT22;25518;47.878;15.914;2023-04-16T13:48:01;9.20;99.90
39849;DHT22;25518;47.878;15.914;2023-04-16T13:50:51;9.10;99.90
39849;DHT22;25518;47.878;15.914;2023-04-16T13:53:40;7.30;99.90
39849;DHT22;25518;47.878;15.914;2023-04-16T13:56:30;9.20;99.90
39849;DHT22;25518;47.878;15.914;2023-04-16T13:59:20;9.40;99.90
39849;DHT22;25518;47.878;15.914;2023-04-16T14:02:10;9.60;99.90
39849;DHT22;25518;47.878;15.914;2023-04-16T14:04:59;9.50;99.90
39849;DHT22;25518;47.878;15.914;2023-04-16T14:07:49;9.40;99.90
39849;DHT22;25518;47.878;15.914;2023-04-16T14:10:39;9.30;99.90
39849;DHT22;25518;47.878;15.914;2023-04-16T14:13:28;9.20;99.90
39849;DHT22;25518;47.878;15.914;2023-04-16T14:16:18;9.10;99.90
39849;DHT22;25518;47.878;15.914;2023-04-16T14:19:07;8.90;99.90
39849;DHT22;25518;47.878;15.914;2023-04-16T14:21:57;8.80;99.90
39849;DHT22;25518;47.878;15.914;2023-04-16T14:24:47;8.70;99.90
39849;DHT22;25518;47.878;15.914;2023-04-16T14:27:36;8.70;99.90
39849;DHT22;25518;47.878;15.914;2023-04-16T14:30:26;8.70;99.90
39849;DHT22;25518;47.878;15.914;2023-04-16T14:33:15;8.60;99.90
39849;DHT22;25518;47.878;15.914;2023-04-16T14:36:05;8.70;99.90
39849;DHT22;25518;47.878;15.914;2023-04-16T14:38:55;8.60;99.90
39849;DHT22;25518;47.878;15.914;2023-04-16T14:41:44;8.60;99.90
39849;DHT22;25518;47.878;15.914;2023-04-16T14:44:34;8.60;99.90
39849;DHT22;25518;47.878;15.914;2023-04-16T14:47:24;8.50;99.90
39849;DHT22;25518;47.878;15.914;2023-04-16T14:50:13;8.50;99.90
39849;DHT22;25518;47.878;15.914;2023-04-16T14:53:04;8.60;99.90
39849;DHT22;25518;47.878;15.914;2023-04-16T14:55:53;8.70;99.90
39849;DHT22;25518;47.878;15.914;2023-04-16T14:58:46;8.80;99.90
39849;DHT22;25518;47.878;15.914;2023-04-16T15:01:36;8.70;99.90
39849;DHT22;25518;47.878;15.914;2023-04-16T15:04:28;7.90;99.90
39849;DHT22;25518;47.878;15.914;2023-04-16T15:07:18;8.70;99.90
39849;DHT22;25518;47.878;15.914;2023-04-16T15:10:09;8.70;99.90
39849;DHT22;25518;47.878;15.914;2023-04-16T15:13:00;8.80;99.90
39849;DHT22;25518;47.878;15.914;2023-04-16T15:15:50;8.80;99.90
39849;DHT22;25518;47.878;15.914;2023-04-16T15:18:40;8.90;99.90
39849;DHT22;25518;47.878;15.914;2023-04-16T15:21:30;8.70;99.90
39849;DHT22;25518;47.878;15.914;2023-04-16T15:24:20;8.70;99.90
39849;DHT22;25518;47.878;15.914;2023-04-16T15:27:09;7.50;99.90
39849;DHT22;25518;47.878;15.914;2023-04-16T15:29:59;8.50;99.90
39849;DHT22;25518;47.878;15.914;2023-04-16T15:32:49;8.50;99.90
39849;DHT22;25518;47.878;15.914;2023-04-16T15:35:39;8.50;99.90
39849;DHT22;25518;47.878;15.914;2023-04-16T15:38:29;8.60;99.90
39849;DHT22;25518;47.878;15.914;2023-04-16T15:41:19;7.80;99.90
39849;DHT22;25518;47.878;15.914;2023-04-16T15:44:09;8.50;99.90
39849;DHT22;25518;47.878;15.914;2023-04-16T15:46:59;8.60;99.90
39849;DHT22;25518;47.878;15.914;2023-04-16T15:49:49;8.30;99.90
39849;DHT22;25518;47.878;15.914;2023-04-16T15:52:38;8.40;99.90
39849;DHT22;25518;47.878;15.914;2023-04-16T15:55:28;8.30;99.90
39849;DHT22;25518;47.878;15.914;2023-04-16T15:58:18;8.30;99.90
39849;DHT22;25518;47.878;15.914;2023-04-16T16:01:08;8.40;99.90
39849;DHT22;25518;47.878;15.914;2023-04-16T16:03:58;8.40;99.90
39849;DHT22;25518;47.878;15.914;2023-04-16T16:06:49;8.20;99.90
39849;DHT22;25518;47.878;15.914;2023-04-16T16:09:38;8.20;99.90
39849;DHT22;25518;47.878;15.914;2023-04-16T16:12:28;8.20;99.90
39849;DHT22;25518;47.878;15.914;2023-04-16T16:15:18;8.10;99.90
39849;DHT22;25518;47.878;15.914;2023-04-16T16:18:07;8.10;99.90
39849;DHT22;25518;47.878;15.914;2023-04-16T16:20:57;8.20;99.90
39849;DHT22;25518;47.878;15.914;2023-04-16T16:23:47;8.20;99.90
39849;DHT22;25518;47.878;15.914;2023-04-16T16:26:37;8.20;99.90
39849;DHT22;25518;47.878;15.914;2023-04-16T16:29:26;8.10;99.90
39849;DHT22;25518;47.878;15.914;2023-04-16T16:32:16;8.10;99.90
39849;DHT22;25518;47.878;15.914;2023-04-16T16:35:07;8.00;99.90
39849;DHT22;25518;47.878;15.914;2023-04-16T16:37:57;8.00;99.90
39849;DHT22;25518;47.878;15.914;2023-04-16T16:40:47;8.00;99.90
39849;DHT22;25518;47.878;15.914;2023-04-16T16:43:37;7.90;99.90
39849;DHT22;25518;47.878;15.914;2023-04-16T16:46:27;8.00;99.90
39849;DHT22;25518;47.878;15.914;2023-04-16T16:49:17;7.90;99.90
39849;DHT22;25518;47.878;15.914;2023-04-16T16:52:06;8.00;99.90
39849;DHT22;25518;47.878;15.914;2023-04-16T16:54:56;7.90;99.90
39849;DHT22;25518;47.878;15.914;2023-04-16T16:57:46;7.90;99.90
39849;DHT22;25518;47.878;15.914;2023-04-16T17:00:36;8.00;99.90
39849;DHT22;25518;47.878;15.914;2023-04-16T17:03:26;7.90;99.90
39849;DHT22;25518;47.878;15.914;2023-04-16T17:06:16;5.20;99.90
39849;DHT22;25518;47.878;15.914;2023-04-16T17:09:06;7.90;99.90
39849;DHT22;25518;47.878;15.914;2023-04-16T17:11:55;7.90;99.90
39849;DHT22;25518;47.878;15.914;2023-04-16T17:14:49;7.90;99.90
39849;DHT22;25518;47.878;15.914;2023-04-16T17:17:39;7.80;99.90
39849;DHT22;25518;47.878;15.914;2023-04-16T17:20:29;7.70;99.90
39849;DHT22;25518;47.878;15.914;2023-04-16T17:23:18;7.60;99.90
39849;DHT22;25518;47.878;15.914;2023-04-16T17:26:08;7.60;99.90
39849;DHT22;25518;47.878;15.914;2023-04-16T17:28:57;7.60;99.90
39849;DHT22;25518;47.878;15.914;2023-04-16T17:31:47;7.50;99.90
39849;DHT22;25518;47.878;15.914;2023-04-16T17:34:37;7.50;99.90
39849;DHT22;25518;47.878;15.914;2023-04-16T17:37:27;7.50;99.90
39849;DHT22;25518;47.878;15.914;2023-04-16T17:40:16;7.40;99.90
39849;DHT22;25518;47.878;15.914;2023-04-16T17:43:06;7.40;99.90
39849;DHT22;25518;47.878;15.914;2023-04-16T17:45:56;7.30;99.90
39849;DHT22;25518;47.878;15.914;2023-04-16T17:48:45;7.20;99.90
39849;DHT22;25518;47.878;15.914;2023-04-16T17:51:37;7.10;99.90
39849;DHT22;25518;47.878;15.914;2023-04-16T17:54:26;7.10;99.90
39849;DHT22;25518;47.878;15.914;2023-04-16T17:57:16;7.00;99.90
39849;DHT22;25518;47.878;15.914;2023-04-16T18:00:06;7.00;99.90
39849;DHT22;25518;47.878;15.914;2023-04-16T18:03:04;6.90;99.90
39849;DHT22;25518;47.878;15.914;2023-04-16T18:05:54;6.90;99.90
39849;DHT22;25518;47.878;15.914;2023-04-16T18:08:44;7.00;99.90
39849;DHT22;25518;47.878;15.914;2023-04-16T18:11:34;7.00;99.90
39849;DHT22;25518;47.878;15.914;2023-04-16T18:14:23;6.90;99.90